createdAt,value
2017-08-31T00:00:57.863Z,1002.62
2017-08-31T00:01:57.889Z,1002.64
2017-08-31T00:02:57.912Z,1002.63
2017-08-31T00:03:57.937Z,1002.62
2017-08-31T00:05:57.986Z,1002.56
2017-08-31T00:06:58.014Z,1002.55
2017-08-31T00:07:58.040Z,1002.58
2017-08-31T00:08:58.068Z,1002.51
2017-08-31T00:09:58.089Z,1002.51
2017-08-31T00:10:58.121Z,1002.47
2017-08-31T00:11:58.146Z,1002.42
2017-08-31T00:12:58.171Z,1002.41
2017-08-31T00:13:58.193Z,1002.4
2017-08-31T00:14:58.221Z,1002.38
2017-08-31T00:15:58.245Z,1002.37
2017-08-31T00:16:58.272Z,1002.32
2017-08-31T00:17:58.296Z,1002.3
2017-08-31T00:18:58.324Z,1002.32
2017-08-31T00:19:58.349Z,1002.36
2017-08-31T00:21:58.401Z,1002.38
2017-08-31T00:22:58.427Z,1002.41
2017-08-31T00:23:58.449Z,1002.38
2017-08-31T00:24:58.475Z,1002.34
2017-08-31T00:25:58.500Z,1002.35
2017-08-31T00:26:58.550Z,1002.35
2017-08-31T00:27:58.552Z,1002.34
2017-08-31T00:28:58.577Z,1002.36
2017-08-31T00:29:58.602Z,1002.34
2017-08-31T00:30:58.624Z,1002.32
2017-08-31T00:31:58.655Z,1002.3
2017-08-31T00:32:58.680Z,1002.31
2017-08-31T00:33:58.707Z,1002.27
2017-08-31T00:34:59.031Z,1002.31
2017-08-31T00:35:58.755Z,1002.27
2017-08-31T00:37:58.809Z,1002.26
2017-08-31T00:38:58.836Z,1002.22
2017-08-31T00:39:58.862Z,1002.26
2017-08-31T00:40:58.886Z,1002.28
2017-08-31T00:41:58.910Z,1002.3
2017-08-31T00:42:58.935Z,1002.29
2017-08-31T00:43:58.960Z,1002.36
2017-08-31T00:44:58.984Z,1002.38
2017-08-31T00:45:59.008Z,1002.37
2017-08-31T00:46:59.036Z,1002.35
2017-08-31T00:47:59.058Z,1002.37
2017-08-31T00:48:59.090Z,1002.42
2017-08-31T00:49:59.112Z,1002.46
2017-08-31T00:50:59.138Z,1002.52
2017-08-31T00:51:59.162Z,1002.55
2017-08-31T00:53:59.218Z,1002.63
2017-08-31T00:54:59.240Z,1002.67
2017-08-31T00:55:59.266Z,1002.68
2017-08-31T00:56:59.318Z,1002.73
2017-08-31T00:57:59.317Z,1002.77
2017-08-31T00:58:59.340Z,1002.8
2017-08-31T00:59:59.369Z,1002.82
2017-08-31T01:00:59.392Z,1002.82
2017-08-31T01:01:59.420Z,1002.81
2017-08-31T01:02:59.439Z,1002.89
2017-08-31T01:03:59.473Z,1002.89
2017-08-31T01:04:59.496Z,1002.89
2017-08-31T01:05:59.525Z,1002.97
2017-08-31T01:06:59.544Z,1002.93
2017-08-31T01:08:59.592Z,1002.98
2017-08-31T01:09:59.624Z,1002.92
2017-08-31T01:10:59.647Z,1002.89
2017-08-31T01:11:59.673Z,1002.88
2017-08-31T01:12:59.700Z,1002.91
2017-08-31T01:13:59.725Z,1002.94
2017-08-31T01:14:59.745Z,1002.93
2017-08-31T01:15:59.776Z,1002.88
2017-08-31T01:16:59.800Z,1002.88
2017-08-31T01:17:59.823Z,1002.83
2017-08-31T01:18:59.852Z,1002.85
2017-08-31T01:19:59.877Z,1002.8
2017-08-31T01:20:59.902Z,1002.82
2017-08-31T01:21:59.925Z,1002.83
2017-08-31T01:22:59.950Z,1002.84
2017-08-31T01:23:59.975Z,1002.87
2017-08-31T01:24:59.999Z,1002.85
2017-08-31T01:26:00.029Z,1002.85
2017-08-31T01:27:00.054Z,1002.84
2017-08-31T01:28:00.083Z,1002.89
2017-08-31T01:29:00.104Z,1002.89
2017-08-31T01:30:00.129Z,1002.9
2017-08-31T01:31:00.154Z,1002.91
2017-08-31T01:32:00.180Z,1002.94
2017-08-31T01:33:00.207Z,1002.9
2017-08-31T01:34:00.227Z,1002.92
2017-08-31T01:35:00.257Z,1002.89
2017-08-31T01:36:00.282Z,1002.93
2017-08-31T01:37:00.307Z,1003
2017-08-31T01:38:00.333Z,1002.97
2017-08-31T01:39:00.353Z,1002.94
2017-08-31T01:41:00.426Z,1002.97
2017-08-31T01:42:00.437Z,1003.01
2017-08-31T01:43:00.458Z,1002.99
2017-08-31T01:44:00.486Z,1002.98
2017-08-31T01:45:00.514Z,1002.99
2017-08-31T01:46:00.535Z,1003.01
2017-08-31T01:47:00.562Z,1002.98
2017-08-31T01:48:00.586Z,1002.97
2017-08-31T01:49:00.614Z,1003
2017-08-31T01:50:00.636Z,1002.99
2017-08-31T01:51:00.664Z,1003
2017-08-31T01:52:00.688Z,1003.02
2017-08-31T01:53:00.717Z,1003.01
2017-08-31T01:54:00.737Z,1002.97
2017-08-31T01:55:00.763Z,1003.01
2017-08-31T01:57:00.813Z,1002.97
2017-08-31T01:58:00.840Z,1003
2017-08-31T01:59:00.864Z,1003
2017-08-31T02:00:00.892Z,1003.02
2017-08-31T02:01:00.918Z,1003.04
2017-08-31T02:02:00.941Z,1003.01
2017-08-31T02:03:00.965Z,1003.08
2017-08-31T02:04:00.991Z,1003.02
2017-08-31T02:05:01.018Z,1003.05
2017-08-31T02:06:01.041Z,1003.05
2017-08-31T02:07:01.068Z,1003.12
2017-08-31T02:08:01.098Z,1003.14
2017-08-31T02:09:01.122Z,1003.17
2017-08-31T02:10:01.148Z,1003.21
2017-08-31T02:11:01.172Z,1003.25
2017-08-31T02:13:01.225Z,1003.25
2017-08-31T02:14:01.250Z,1003.23
2017-08-31T02:15:01.276Z,1003.29
2017-08-31T02:16:01.300Z,1003.29
2017-08-31T02:17:01.324Z,1003.32
2017-08-31T02:18:01.349Z,1003.33
2017-08-31T02:19:01.378Z,1003.35
2017-08-31T02:20:01.400Z,1003.39
2017-08-31T02:21:01.425Z,1003.41
2017-08-31T02:22:01.449Z,1003.48
2017-08-31T02:23:01.480Z,1003.48
2017-08-31T02:24:01.498Z,1003.51
2017-08-31T02:25:01.528Z,1003.53
2017-08-31T02:26:01.555Z,1003.56
2017-08-31T02:27:01.580Z,1003.63
2017-08-31T02:29:01.629Z,1003.73
2017-08-31T02:30:01.656Z,1003.76
2017-08-31T02:31:01.680Z,1003.77
2017-08-31T02:32:01.710Z,1003.77
2017-08-31T02:33:01.735Z,1003.74
2017-08-31T02:34:01.760Z,1003.77
2017-08-31T02:35:01.783Z,1003.78
2017-08-31T02:36:01.814Z,1003.77
2017-08-31T02:37:01.837Z,1003.69
2017-08-31T02:38:01.857Z,1003.72
2017-08-31T02:39:01.888Z,1003.73
2017-08-31T02:40:01.916Z,1003.72
2017-08-31T02:41:01.936Z,1003.72
2017-08-31T02:42:01.958Z,1003.7
2017-08-31T02:44:02.017Z,1003.66
2017-08-31T02:45:02.040Z,1003.62
2017-08-31T02:46:02.061Z,1003.62
2017-08-31T02:47:02.090Z,1003.65
2017-08-31T02:48:02.113Z,1003.63
2017-08-31T02:49:02.142Z,1003.59
2017-08-31T02:50:02.167Z,1003.62
2017-08-31T02:51:02.191Z,1003.6
2017-08-31T02:52:02.223Z,1003.59
2017-08-31T02:53:02.241Z,1003.59
2017-08-31T02:54:02.272Z,1003.53
2017-08-31T02:55:02.292Z,1003.5
2017-08-31T02:56:02.324Z,1003.49
2017-08-31T02:57:02.349Z,1003.49
2017-08-31T02:58:02.373Z,1003.45
2017-08-31T02:59:02.399Z,1003.44
2017-08-31T03:00:02.422Z,1003.44
2017-08-31T03:01:02.448Z,1003.42
2017-08-31T03:02:02.476Z,1003.47
2017-08-31T03:03:02.500Z,1003.46
2017-08-31T03:04:02.522Z,1003.48
2017-08-31T03:05:02.551Z,1003.47
2017-08-31T03:06:02.581Z,1003.41
2017-08-31T03:07:02.601Z,1003.36
2017-08-31T03:08:02.630Z,1003.34
2017-08-31T03:09:02.653Z,1003.35
2017-08-31T03:10:02.683Z,1003.33
2017-08-31T03:11:02.700Z,1003.33
2017-08-31T03:12:02.732Z,1003.36
2017-08-31T03:13:02.753Z,1003.32
2017-08-31T03:14:02.784Z,1003.41
2017-08-31T03:16:02.828Z,1003.4
2017-08-31T03:17:02.863Z,1003.39
2017-08-31T03:18:02.884Z,1003.37
2017-08-31T03:19:02.908Z,1003.4
2017-08-31T03:20:02.936Z,1003.49
2017-08-31T03:21:02.960Z,1003.52
2017-08-31T03:22:02.989Z,1003.51
2017-08-31T03:23:03.013Z,1003.49
2017-08-31T03:24:03.040Z,1003.48
2017-08-31T03:25:03.065Z,1003.48
2017-08-31T03:26:03.087Z,1003.47
2017-08-31T03:27:03.116Z,1003.43
2017-08-31T03:28:03.139Z,1003.43
2017-08-31T03:29:03.168Z,1003.43
2017-08-31T03:30:03.199Z,1003.48
2017-08-31T03:32:03.245Z,1003.49
2017-08-31T03:33:03.268Z,1003.46
2017-08-31T03:34:03.293Z,1003.49
2017-08-31T03:35:03.321Z,1003.53
2017-08-31T03:36:03.342Z,1003.57
2017-08-31T03:37:03.371Z,1003.61
2017-08-31T03:38:03.396Z,1003.64
2017-08-31T03:39:03.418Z,1003.65
2017-08-31T03:40:03.448Z,1003.66
2017-08-31T03:41:03.471Z,1003.66
2017-08-31T03:42:03.496Z,1003.7
2017-08-31T03:43:03.523Z,1003.72
2017-08-31T03:44:03.548Z,1003.7
2017-08-31T03:45:03.578Z,1003.7
2017-08-31T03:46:03.600Z,1003.7
2017-08-31T03:48:03.648Z,1003.64
2017-08-31T03:49:03.672Z,1003.7
2017-08-31T03:50:03.705Z,1003.69
2017-08-31T03:51:03.724Z,1003.72
2017-08-31T03:52:03.752Z,1003.78
2017-08-31T03:53:03.781Z,1003.78
2017-08-31T03:54:03.800Z,1003.82
2017-08-31T03:55:03.830Z,1003.76
2017-08-31T03:56:03.854Z,1003.81
2017-08-31T03:57:03.880Z,1003.75
2017-08-31T03:58:03.910Z,1003.79
2017-08-31T03:59:03.927Z,1003.77
2017-08-31T04:00:03.962Z,1003.77
2017-08-31T04:01:03.984Z,1003.81
2017-08-31T04:02:04.007Z,1003.82
2017-08-31T04:04:04.060Z,1003.81
2017-08-31T04:05:04.106Z,1003.81
2017-08-31T04:06:04.114Z,1003.82
2017-08-31T04:07:04.136Z,1003.81
2017-08-31T04:08:04.166Z,1003.82
2017-08-31T04:09:04.186Z,1003.82
2017-08-31T04:10:04.212Z,1003.82
2017-08-31T04:11:04.239Z,1003.8
2017-08-31T04:12:04.268Z,1003.79
2017-08-31T04:13:04.291Z,1003.79
2017-08-31T04:14:04.316Z,1003.77
2017-08-31T04:15:04.345Z,1003.8
2017-08-31T04:16:04.370Z,1003.76
2017-08-31T04:17:04.395Z,1003.73
2017-08-31T04:19:04.443Z,1003.78
2017-08-31T04:20:04.470Z,1003.74
2017-08-31T04:21:04.500Z,1003.76
2017-08-31T04:22:04.524Z,1003.8
2017-08-31T04:23:04.550Z,1003.77
2017-08-31T04:24:04.574Z,1003.81
2017-08-31T04:25:04.600Z,1003.78
2017-08-31T04:26:04.623Z,1003.89
2017-08-31T04:27:04.644Z,1003.9
2017-08-31T04:28:04.675Z,1003.9
2017-08-31T04:29:04.698Z,1003.92
2017-08-31T04:30:04.723Z,1003.9
2017-08-31T04:31:04.749Z,1003.96
2017-08-31T04:32:04.777Z,1003.9
2017-08-31T04:33:04.799Z,1003.94
2017-08-31T04:34:04.827Z,1003.95
2017-08-31T04:35:04.852Z,1003.99
2017-08-31T04:36:04.882Z,1003.97
2017-08-31T04:37:04.906Z,1003.96
2017-08-31T04:38:04.932Z,1003.97
2017-08-31T04:39:04.958Z,1004.02
2017-08-31T04:40:04.980Z,1003.97
2017-08-31T04:41:05.009Z,1004.06
2017-08-31T04:42:05.032Z,1004.04
2017-08-31T04:43:05.056Z,1004.05
2017-08-31T04:44:05.082Z,1003.99
2017-08-31T04:45:05.109Z,1004
2017-08-31T04:46:05.138Z,1003.99
2017-08-31T04:47:05.158Z,1004.02
2017-08-31T04:48:05.184Z,1003.99
2017-08-31T04:49:05.214Z,1004.02
2017-08-31T04:51:05.291Z,1004.04
2017-08-31T04:52:05.287Z,1004.08
2017-08-31T04:53:05.314Z,1004.06
2017-08-31T04:54:05.342Z,1004.09
2017-08-31T04:55:05.367Z,1004.1
2017-08-31T04:56:05.392Z,1004.07
2017-08-31T04:57:05.413Z,1004.09
2017-08-31T04:58:05.439Z,1004.1
2017-08-31T04:59:05.469Z,1004.07
2017-08-31T05:00:05.493Z,1004.12
2017-08-31T05:01:05.516Z,1004.12
2017-08-31T05:02:05.544Z,1004.1
2017-08-31T05:03:05.571Z,1004.09
2017-08-31T05:04:05.598Z,1004.11
2017-08-31T05:05:05.622Z,1004.11
2017-08-31T05:07:05.676Z,1004.15
2017-08-31T05:08:05.695Z,1004.18
2017-08-31T05:09:05.726Z,1004.21
2017-08-31T05:10:05.746Z,1004.27
2017-08-31T05:11:05.772Z,1004.24
2017-08-31T05:12:05.799Z,1004.27
2017-08-31T05:13:05.828Z,1004.28
2017-08-31T05:14:05.848Z,1004.29
2017-08-31T05:15:05.878Z,1004.28
2017-08-31T05:16:05.900Z,1004.23
2017-08-31T05:17:05.931Z,1004.28
2017-08-31T05:18:05.950Z,1004.27
2017-08-31T05:19:05.978Z,1004.26
2017-08-31T05:20:06.008Z,1004.27
2017-08-31T05:21:06.033Z,1004.25
2017-08-31T05:23:06.081Z,1004.26
2017-08-31T05:24:06.115Z,1004.31
2017-08-31T05:25:06.131Z,1004.35
2017-08-31T05:26:06.158Z,1004.35
2017-08-31T05:27:06.188Z,1004.39
2017-08-31T05:28:06.212Z,1004.34
2017-08-31T05:29:06.238Z,1004.36
2017-08-31T05:30:06.266Z,1004.33
2017-08-31T05:31:06.290Z,1004.35
2017-08-31T05:32:06.314Z,1004.35
2017-08-31T05:33:06.343Z,1004.38
2017-08-31T05:34:06.369Z,1004.29
2017-08-31T05:35:06.388Z,1004.36
2017-08-31T05:36:06.423Z,1004.36
2017-08-31T05:37:06.449Z,1004.34
2017-08-31T05:39:06.497Z,1004.32
2017-08-31T05:40:06.528Z,1004.34
2017-08-31T05:41:06.549Z,1004.43
2017-08-31T05:42:06.578Z,1004.4
2017-08-31T05:43:06.605Z,1004.34
2017-08-31T05:44:06.624Z,1004.33
2017-08-31T05:45:06.653Z,1004.32
2017-08-31T05:46:06.684Z,1004.35
2017-08-31T05:47:06.706Z,1004.34
2017-08-31T05:48:06.733Z,1004.33
2017-08-31T05:49:06.757Z,1004.36
2017-08-31T05:50:06.788Z,1004.28
2017-08-31T05:51:06.808Z,1004.31
2017-08-31T05:52:06.840Z,1004.33
2017-08-31T05:54:06.897Z,1004.29
2017-08-31T05:55:06.917Z,1004.32
2017-08-31T05:56:06.944Z,1004.31
2017-08-31T05:57:06.970Z,1004.29
2017-08-31T05:58:06.996Z,1004.29
2017-08-31T05:59:07.019Z,1004.32
2017-08-31T06:00:07.051Z,1004.42
2017-08-31T06:01:07.081Z,1004.54
2017-08-31T06:02:07.102Z,1004.52
2017-08-31T06:03:07.129Z,1004.46
2017-08-31T06:04:07.158Z,1004.41
2017-08-31T06:05:07.181Z,1004.6
2017-08-31T06:06:07.211Z,1004.57
2017-08-31T06:07:07.236Z,1004.55
2017-08-31T06:08:07.263Z,1004.65
2017-08-31T06:09:07.289Z,1004.67
2017-08-31T06:10:07.316Z,1004.77
2017-08-31T06:11:07.348Z,1004.68
2017-08-31T06:12:07.372Z,1004.57
2017-08-31T06:13:07.400Z,1004.58
2017-08-31T06:14:07.431Z,1005.01
2017-08-31T06:15:07.459Z,1005.2
2017-08-31T06:16:07.487Z,1005.32
2017-08-31T06:17:07.509Z,1005.38
2017-08-31T06:18:07.540Z,1005.3
2017-08-31T06:19:07.572Z,1004.84
2017-08-31T06:20:07.600Z,1005.1
2017-08-31T06:21:07.624Z,1005.39
2017-08-31T06:22:07.655Z,1005.38
2017-08-31T06:23:07.690Z,1005.43
2017-08-31T06:24:07.715Z,1005.41
2017-08-31T06:26:07.776Z,1005.46
2017-08-31T06:27:07.806Z,1005.45
2017-08-31T06:28:07.885Z,1005.44
2017-08-31T06:29:07.874Z,1005.35
2017-08-31T06:30:07.900Z,1005.32
2017-08-31T06:31:07.931Z,1005.27
2017-08-31T06:32:07.964Z,1005.31
2017-08-31T06:33:07.999Z,1005.25
2017-08-31T06:34:08.030Z,1005.35
2017-08-31T06:35:08.058Z,1005.32
2017-08-31T06:36:08.090Z,1005.33
2017-08-31T06:37:08.128Z,1005.25
2017-08-31T06:38:08.156Z,1005.26
2017-08-31T06:39:08.192Z,1004.9
2017-08-31T06:40:08.220Z,1004.79
2017-08-31T06:42:08.289Z,1004.89
2017-08-31T06:43:08.322Z,1004.88
2017-08-31T06:44:08.356Z,1004.91
2017-08-31T06:45:08.388Z,1004.98
2017-08-31T06:46:08.424Z,1004.85
2017-08-31T06:47:08.454Z,1004.78
2017-08-31T06:48:08.491Z,1004.94
2017-08-31T06:49:08.518Z,1005.31
2017-08-31T06:50:08.556Z,1005.4
2017-08-31T06:51:08.590Z,1005.42
2017-08-31T06:52:08.621Z,1005.51
2017-08-31T06:53:08.653Z,1005.46
2017-08-31T06:54:08.686Z,1005.48
2017-08-31T06:55:08.715Z,1005.51
2017-08-31T06:56:08.753Z,1005.48
2017-08-31T06:58:08.813Z,1005.51
2017-08-31T06:59:08.845Z,1005.17
2017-08-31T07:00:08.877Z,1004.96
2017-08-31T07:01:08.916Z,1005.28
2017-08-31T07:02:08.951Z,1005.47
2017-08-31T07:03:08.980Z,1005.43
2017-08-31T07:04:09.016Z,1005.34
2017-08-31T07:05:09.046Z,1005.19
2017-08-31T07:06:09.083Z,1005.37
2017-08-31T07:07:09.112Z,1005.27
2017-08-31T07:08:09.147Z,1005.26
2017-08-31T07:09:09.183Z,1005.26
2017-08-31T07:10:09.215Z,1005.28
2017-08-31T07:11:09.255Z,1005.32
2017-08-31T07:12:09.286Z,1005.48
2017-08-31T07:14:09.356Z,1005.42
2017-08-31T07:15:09.385Z,1005.41
2017-08-31T07:16:09.422Z,1005.4
2017-08-31T07:17:09.457Z,1005.43
2017-08-31T07:18:09.493Z,1005.38
2017-08-31T07:19:09.525Z,1005.36
2017-08-31T07:20:09.557Z,1005.38
2017-08-31T07:21:09.588Z,1005.42
2017-08-31T07:22:09.630Z,1005.35
2017-08-31T07:23:09.660Z,1005.41
2017-08-31T07:24:09.700Z,1005.36
2017-08-31T07:25:09.736Z,1005.45
2017-08-31T07:26:09.768Z,1005.42
2017-08-31T07:27:09.802Z,1005.38
2017-08-31T07:29:09.873Z,1005.38
2017-08-31T07:30:09.908Z,1005.39
2017-08-31T07:31:09.943Z,1005.3
2017-08-31T07:32:09.980Z,1005.3
2017-08-31T07:33:10.015Z,1005.32
2017-08-31T07:34:10.049Z,1005.34
2017-08-31T07:35:10.088Z,1005.28
2017-08-31T07:36:10.129Z,1005.31
2017-08-31T07:37:10.156Z,1005.3
2017-08-31T07:38:10.191Z,1005.27
2017-08-31T07:39:10.227Z,1005.23
2017-08-31T07:40:10.270Z,1005.2
2017-08-31T07:41:10.298Z,1005.18
2017-08-31T07:42:10.336Z,1005.15
2017-08-31T07:43:10.371Z,1005.15
2017-08-31T07:44:10.407Z,1005.22
2017-08-31T07:45:10.444Z,1005.22
2017-08-31T07:46:10.479Z,1005.27
2017-08-31T07:47:10.520Z,1005.28
2017-08-31T07:48:10.553Z,1005.29
2017-08-31T07:49:10.588Z,1005.3
2017-08-31T07:50:10.622Z,1005.36
2017-08-31T07:51:10.663Z,1005.33
2017-08-31T07:52:10.693Z,1005.3
2017-08-31T07:53:10.733Z,1005.23
2017-08-31T07:54:10.769Z,1005.25
2017-08-31T07:55:10.804Z,1005.26
2017-08-31T07:56:10.838Z,1005.28
2017-08-31T07:57:10.879Z,1005.32
2017-08-31T07:58:10.914Z,1005.31
2017-08-31T07:59:10.947Z,1005.31
2017-08-31T08:01:11.018Z,1005.34
2017-08-31T08:02:11.054Z,1005.38
2017-08-31T08:03:11.090Z,1005.33
2017-08-31T08:04:11.132Z,1005.29
2017-08-31T08:05:11.163Z,1005.22
2017-08-31T08:06:11.200Z,1005.19
2017-08-31T08:07:11.238Z,1005.17
2017-08-31T08:08:11.274Z,1005.2
2017-08-31T08:09:11.310Z,1005.26
2017-08-31T08:10:11.344Z,1005.22
2017-08-31T08:11:11.381Z,1005.28
2017-08-31T08:12:11.415Z,1005.26
2017-08-31T08:13:11.451Z,1005.27
2017-08-31T08:14:11.487Z,1005.25
2017-08-31T08:15:11.523Z,1005.25
2017-08-31T08:17:11.594Z,1005.19
2017-08-31T08:18:11.636Z,1005.21
2017-08-31T08:19:11.674Z,1005.21
2017-08-31T08:20:11.704Z,1005.2
2017-08-31T08:21:11.743Z,1005.2
2017-08-31T08:22:11.781Z,1005.11
2017-08-31T08:23:11.815Z,1005.15
2017-08-31T08:24:11.852Z,1005.22
2017-08-31T08:25:11.888Z,1005.18
2017-08-31T08:26:11.919Z,1005.14
2017-08-31T08:27:11.960Z,1005.15
2017-08-31T08:28:11.992Z,1005.09
2017-08-31T08:29:12.029Z,1005.13
2017-08-31T08:30:12.067Z,1005.06
2017-08-31T08:31:12.099Z,1005.05
2017-08-31T08:33:12.181Z,1004.83
2017-08-31T08:34:12.213Z,1004.77
2017-08-31T08:35:12.250Z,1004.82
2017-08-31T08:36:12.283Z,1004.89
2017-08-31T08:37:12.321Z,1004.94
2017-08-31T08:38:12.357Z,1004.91
2017-08-31T08:39:12.389Z,1004.88
2017-08-31T08:40:12.429Z,1004.84
2017-08-31T08:41:12.458Z,1004.85
2017-08-31T08:42:12.495Z,1004.88
2017-08-31T08:43:12.529Z,1004.94
2017-08-31T08:44:12.574Z,1005.01
2017-08-31T08:45:12.608Z,1005.01
2017-08-31T08:46:12.644Z,1005.11
2017-08-31T08:47:12.678Z,1005.12
2017-08-31T08:49:12.750Z,1005.25
2017-08-31T08:50:12.784Z,1005.29
2017-08-31T08:51:12.822Z,1005.28
2017-08-31T08:52:12.858Z,1005.26
2017-08-31T08:53:12.891Z,1005.24
2017-08-31T08:54:12.930Z,1005.25
2017-08-31T08:55:12.967Z,1005.27
2017-08-31T08:56:12.995Z,1005.26
2017-08-31T08:57:13.036Z,1005.25
2017-08-31T08:58:13.072Z,1005.29
2017-08-31T08:59:13.109Z,1005.41
2017-08-31T09:00:13.144Z,1005.35
2017-08-31T09:01:13.179Z,1005.33
2017-08-31T09:02:13.214Z,1005.36
2017-08-31T09:04:13.287Z,1005.36
2017-08-31T09:05:13.323Z,1005.38
2017-08-31T09:06:13.356Z,1005.34
2017-08-31T09:07:13.393Z,1005.34
2017-08-31T09:08:13.426Z,1005.33
2017-08-31T09:09:13.463Z,1005.35
2017-08-31T09:10:13.497Z,1005.34
2017-08-31T09:11:13.533Z,1005.43
2017-08-31T09:12:13.565Z,1005.47
2017-08-31T09:13:13.602Z,1005.44
2017-08-31T09:14:13.633Z,1005.5
2017-08-31T09:15:13.671Z,1005.47
2017-08-31T09:16:13.708Z,1005.48
2017-08-31T09:17:13.741Z,1005.47
2017-08-31T09:18:13.779Z,1005.49
2017-08-31T09:19:13.811Z,1005.53
2017-08-31T09:20:13.840Z,1005.58
2017-08-31T09:21:13.881Z,1005.58
2017-08-31T09:22:13.914Z,1005.61
2017-08-31T09:23:13.945Z,1005.61
2017-08-31T09:24:13.977Z,1005.56
2017-08-31T09:25:14.015Z,1005.55
2017-08-31T09:26:14.054Z,1005.59
2017-08-31T09:27:14.079Z,1005.66
2017-08-31T09:28:14.122Z,1005.73
2017-08-31T09:29:14.155Z,1005.72
2017-08-31T09:30:14.187Z,1005.69
2017-08-31T09:31:14.224Z,1005.73
2017-08-31T09:32:14.250Z,1005.72
2017-08-31T09:33:14.287Z,1005.65
2017-08-31T09:34:14.315Z,1005.69
2017-08-31T09:36:14.388Z,1005.69
2017-08-31T09:37:14.423Z,1005.66
2017-08-31T09:38:14.454Z,1005.72
2017-08-31T09:39:14.489Z,1005.66
2017-08-31T09:40:14.521Z,1005.64
2017-08-31T09:41:14.552Z,1005.68
2017-08-31T09:42:14.587Z,1005.68
2017-08-31T09:43:14.622Z,1005.63
2017-08-31T09:44:14.649Z,1005.59
2017-08-31T09:45:14.689Z,1005.61
2017-08-31T09:46:14.715Z,1005.67
2017-08-31T09:47:14.752Z,1005.69
2017-08-31T09:48:14.789Z,1005.67
2017-08-31T09:49:14.820Z,1005.69
2017-08-31T09:50:14.852Z,1005.69
2017-08-31T09:52:14.923Z,1005.77
2017-08-31T09:53:14.954Z,1005.74
2017-08-31T09:54:14.987Z,1005.74
2017-08-31T09:55:15.025Z,1005.72
2017-08-31T09:56:15.055Z,1005.74
2017-08-31T09:57:15.085Z,1005.67
2017-08-31T09:58:15.125Z,1005.67
2017-08-31T09:59:15.156Z,1005.7
2017-08-31T10:00:15.192Z,1005.68
2017-08-31T10:01:15.221Z,1005.69
2017-08-31T10:02:15.263Z,1005.82
2017-08-31T10:03:15.295Z,1005.85
2017-08-31T10:04:15.327Z,1005.82
2017-08-31T10:05:15.354Z,1005.79
2017-08-31T10:06:15.393Z,1005.85
2017-08-31T10:08:15.463Z,1005.82
2017-08-31T10:09:15.546Z,1005.8
2017-08-31T10:10:15.525Z,1005.82
2017-08-31T10:11:15.558Z,1005.85
2017-08-31T10:12:15.593Z,1005.86
2017-08-31T10:13:15.627Z,1005.85
2017-08-31T10:14:15.664Z,1005.86
2017-08-31T10:15:15.689Z,1005.84
2017-08-31T10:16:15.727Z,1005.84
2017-08-31T10:17:15.758Z,1005.87
2017-08-31T10:18:15.795Z,1005.81
2017-08-31T10:19:15.827Z,1005.8
2017-08-31T10:20:15.859Z,1005.82
2017-08-31T10:21:15.896Z,1005.81
2017-08-31T10:22:15.923Z,1005.77
2017-08-31T10:24:15.990Z,1005.83
2017-08-31T10:25:16.021Z,1005.87
2017-08-31T10:26:16.056Z,1005.9
2017-08-31T10:27:16.088Z,1005.95
2017-08-31T10:28:16.119Z,1005.87
2017-08-31T10:29:16.155Z,1005.88
2017-08-31T10:30:16.190Z,1005.9
2017-08-31T10:31:16.222Z,1005.9
2017-08-31T10:32:16.255Z,1005.89
2017-08-31T10:33:16.285Z,1005.93
2017-08-31T10:34:16.313Z,1005.95
2017-08-31T10:35:16.349Z,1005.97
2017-08-31T10:36:16.378Z,1005.92
2017-08-31T10:37:16.413Z,1005.92
2017-08-31T10:39:16.476Z,1005.91
2017-08-31T10:40:16.509Z,1005.91
2017-08-31T10:41:16.542Z,1005.86
2017-08-31T10:42:16.574Z,1005.86
2017-08-31T10:43:16.601Z,1005.92
2017-08-31T10:44:16.635Z,1005.98
2017-08-31T10:45:16.691Z,1005.89
2017-08-31T10:46:16.697Z,1005.97
2017-08-31T10:47:16.729Z,1005.91
2017-08-31T10:48:16.762Z,1005.88
2017-08-31T10:49:16.792Z,1005.84
2017-08-31T10:50:16.822Z,1005.83
2017-08-31T10:51:16.859Z,1005.89
2017-08-31T10:52:16.888Z,1005.89
2017-08-31T10:53:16.921Z,1005.88
2017-08-31T10:54:16.948Z,1005.87
2017-08-31T10:55:16.983Z,1005.87
2017-08-31T10:56:17.015Z,1005.88
2017-08-31T10:57:17.041Z,1005.89
2017-08-31T10:58:17.078Z,1005.87
2017-08-31T10:59:17.107Z,1005.9
2017-08-31T11:00:17.140Z,1005.9
2017-08-31T11:01:17.170Z,1005.84
2017-08-31T11:02:17.199Z,1005.9
2017-08-31T11:03:17.235Z,1005.88
2017-08-31T11:04:17.263Z,1005.89
2017-08-31T11:05:17.295Z,1005.84
2017-08-31T11:06:17.331Z,1005.88
2017-08-31T11:07:17.358Z,1005.79
2017-08-31T11:08:17.396Z,1005.72
2017-08-31T11:09:17.419Z,1005.76
2017-08-31T11:11:17.484Z,1005.85
2017-08-31T11:12:17.518Z,1005.86
2017-08-31T11:13:17.550Z,1005.84
2017-08-31T11:14:17.575Z,1005.77
2017-08-31T11:15:17.605Z,1005.8
2017-08-31T11:16:17.636Z,1005.8
2017-08-31T11:17:17.671Z,1005.74
2017-08-31T11:18:17.701Z,1005.73
2017-08-31T11:19:17.734Z,1005.79
2017-08-31T11:20:17.767Z,1005.75
2017-08-31T11:21:17.801Z,1005.75
2017-08-31T11:22:17.931Z,1005.71
2017-08-31T11:23:17.859Z,1005.75
2017-08-31T11:24:17.894Z,1005.78
2017-08-31T11:25:17.975Z,1005.75
2017-08-31T11:27:18.068Z,1005.76
2017-08-31T11:28:18.105Z,1005.77
2017-08-31T11:29:18.153Z,1005.75
2017-08-31T11:30:18.150Z,1005.75
2017-08-31T11:31:18.286Z,1005.78
2017-08-31T11:32:18.263Z,1005.85
2017-08-31T11:33:18.306Z,1005.91
2017-08-31T11:34:18.284Z,1005.96
2017-08-31T11:35:18.289Z,1005.99
2017-08-31T11:36:18.320Z,1005.96
2017-08-31T11:37:18.340Z,1006
2017-08-31T11:38:18.334Z,1006.06
2017-08-31T11:39:18.461Z,1005.98
2017-08-31T11:40:18.395Z,1005.95
2017-08-31T11:41:18.423Z,1006.08
2017-08-31T11:43:18.488Z,1006.07
2017-08-31T11:44:18.518Z,1006.01
2017-08-31T11:45:18.555Z,1006.03
2017-08-31T11:46:18.582Z,1006.04
2017-08-31T11:47:18.609Z,1006.09
2017-08-31T11:48:18.648Z,1006.15
2017-08-31T11:49:18.674Z,1006.19
2017-08-31T11:50:18.709Z,1006.18
2017-08-31T11:51:18.740Z,1006.15
2017-08-31T11:52:18.771Z,1006.22
2017-08-31T11:53:18.798Z,1006.28
2017-08-31T11:54:18.829Z,1006.22
2017-08-31T11:55:18.865Z,1006.28
2017-08-31T11:56:18.889Z,1006.27
2017-08-31T11:57:18.923Z,1006.33
2017-08-31T11:59:19.087Z,1006.33
2017-08-31T12:00:19.019Z,1006.31
2017-08-31T12:01:19.047Z,1006.29
2017-08-31T12:02:19.227Z,1006.35
2017-08-31T12:03:19.110Z,1006.33
2017-08-31T12:04:19.136Z,1006.32
2017-08-31T12:05:19.177Z,1006.32
2017-08-31T12:06:19.199Z,1006.26
2017-08-31T12:07:19.234Z,1006.31
2017-08-31T12:08:19.264Z,1006.31
2017-08-31T12:09:19.297Z,1006.24
2017-08-31T12:10:19.326Z,1006.28
2017-08-31T12:11:19.360Z,1006.26
2017-08-31T12:12:19.391Z,1006.29
2017-08-31T12:14:19.554Z,1006.28
2017-08-31T12:15:19.484Z,1006.28
2017-08-31T12:16:19.511Z,1006.27
2017-08-31T12:17:19.546Z,1006.28
2017-08-31T12:18:19.577Z,1006.28
2017-08-31T12:19:19.603Z,1006.27
2017-08-31T12:20:19.639Z,1006.3
2017-08-31T12:21:19.671Z,1006.29
2017-08-31T12:22:19.695Z,1006.41
2017-08-31T12:23:19.728Z,1006.35
2017-08-31T12:24:19.763Z,1006.33
2017-08-31T12:25:19.787Z,1006.37
2017-08-31T12:26:19.819Z,1006.34
2017-08-31T12:27:19.848Z,1006.34
2017-08-31T12:28:19.883Z,1006.33
2017-08-31T12:29:19.914Z,1006.33
2017-08-31T12:30:20.046Z,1006.45
2017-08-31T12:31:20.072Z,1006.31
2017-08-31T12:32:20.007Z,1006.4
2017-08-31T12:33:20.037Z,1006.35
2017-08-31T12:34:20.066Z,1006.35
2017-08-31T12:35:20.093Z,1006.34
2017-08-31T12:36:20.128Z,1006.39
2017-08-31T12:37:20.154Z,1006.43
2017-08-31T12:38:20.184Z,1006.45
2017-08-31T12:39:20.218Z,1006.47
2017-08-31T12:40:20.248Z,1006.38
2017-08-31T12:41:20.280Z,1006.48
2017-08-31T12:42:20.308Z,1006.51
2017-08-31T12:43:20.338Z,1006.5
2017-08-31T12:44:20.368Z,1006.44
2017-08-31T12:46:20.429Z,1006.43
2017-08-31T12:47:20.460Z,1006.54
2017-08-31T12:48:20.495Z,1006.54
2017-08-31T12:49:20.625Z,1006.51
2017-08-31T12:50:20.549Z,1006.57